Time;durP1;ratioP1;P1;durP2;ratioP2;P2;SDS_P1;SDS_P2;PMS_P1;PMS_P2;Temp;Humidity;BMP_temperature;BMP_pressure;BME280_temperature;BME280_humidity;BME280_pressure;Samples;Min_cycle;Max_cycle;Signal;HPM_P1;HPM_P2
2023/10/01 00:02:14;;;;;;;5.80;2.33;;;;;;;13.36;100.00;100284.53;4888290;29;20195;-87
2023/10/01 02:27:03;;;;;;;5.00;2.50;;;;;;;11.57;100.00;100273.13;5349049;23;20245;-81
2023/10/01 02:29:45;;;;;;;4.20;2.33;;;;;;;11.58;100.00;100271.28;4930352;29;20193;-81
2023/10/01 02:32:17;;;;;;;5.20;2.73;;;;;;;11.59;100.00;100278.31;4929045;29;20278;-80
2023/10/01 02:34:47;;;;;;;5.00;2.30;;;;;;;11.59;100.00;100275.63;4913145;29;20223;-80
2023/10/01 02:37:29;;;;;;;3.47;2.33;;;;;;;11.61;100.00;100273.56;4928599;29;20236;-80
2023/10/01 02:40:12;;;;;;;6.47;2.27;;;;;;;11.60;100.00;100271.91;4945069;29;20191;-80
2023/10/01 02:42:43;;;;;;;6.03;2.47;;;;;;;11.58;100.00;100271.28;4929281;29;20194;-80
2023/10/01 02:45:30;;;;;;;4.37;2.20;;;;;;;11.58;100.00;100272.09;4945629;29;20205;-80
2023/10/01 02:48:16;;;;;;;3.67;2.40;;;;;;;11.58;100.00;100279.34;4945534;29;20202;-81
2023/10/01 02:50:51;;;;;;;4.63;2.60;;;;;;;11.55;100.00;100269.84;4946054;29;20250;-80
2023/10/01 02:53:21;;;;;;;4.90;2.50;;;;;;;11.53;100.00;100266.53;4929942;29;20238;-80
2023/10/01 02:56:02;;;;;;;6.50;2.40;;;;;;;11.54;100.00;100270.06;4929998;29;20196;-80
2023/10/01 02:58:32;;;;;;;5.30;2.77;;;;;;;11.49;100.00;100266.16;4929679;29;20265;-80
2023/10/01 03:01:04;;;;;;;4.53;2.67;;;;;;;11.49;100.00;100265.31;4928865;29;20200;-80
2023/10/01 03:03:38;;;;;;;3.13;2.07;;;;;;;11.46;100.00;100268.44;4945547;29;20257;-80
2023/10/01 03:06:09;;;;;;;4.73;2.93;;;;;;;11.47;100.00;100262.03;4945993;29;20210;-80
2023/10/01 03:08:41;;;;;;;5.00;2.73;;;;;;;11.47;100.00;100270.09;4930340;29;20250;-81
2023/10/01 03:11:11;;;;;;;4.77;2.67;;;;;;;11.45;100.00;100267.59;4929559;29;20191;-81
2023/10/01 03:13:43;;;;;;;3.97;2.60;;;;;;;11.41;100.00;100262.88;4946051;29;20298;-80
2023/10/01 03:16:40;;;;;;;4.37;2.50;;;;;;;11.39;100.00;100270.28;4913964;29;20249;-80
2023/10/01 03:24:38;;;;;;;5.43;2.60;;;;;;;11.26;100.00;100268.47;4945689;29;20194;-80
2023/10/01 03:27:20;;;;;;;4.67;2.43;;;;;;;11.24;100.00;100272.41;4926841;29;20241;-80
2023/10/01 03:30:00;;;;;;;4.43;2.70;;;;;;;11.20;100.00;100263.91;4926153;29;20662;-80
2023/10/01 03:32:29;;;;;;;4.90;2.27;;;;;;;11.17;100.00;100268.88;4925592;29;20214;-80
2023/10/01 03:35:04;;;;;;;4.83;2.80;;;;;;;11.17;100.00;100264.34;4925690;29;20288;-80
2023/10/01 03:37:43;;;;;;;4.07;2.27;;;;;;;11.19;100.00;100264.16;4927274;29;20172;-81
2023/10/01 03:40:22;;;;;;;4.47;2.60;;;;;;;11.22;100.00;100261.03;4925935;29;20191;-81
2023/10/01 03:42:51;;;;;;;4.97;2.30;;;;;;;11.23;100.00;100260.00;4926576;29;20191;-81
2023/10/01 03:48:06;;;;;;;4.43;2.53;;;;;;;11.22;100.00;100253.81;4927586;29;20221;-81
2023/10/01 03:50:45;;;;;;;4.70;2.60;;;;;;;11.27;100.00;100264.75;4926485;29;20191;-80
2023/10/01 03:53:18;;;;;;;5.50;2.57;;;;;;;11.28;100.00;100254.84;4926516;29;20217;-81
2023/10/01 03:55:47;;;;;;;5.20;2.90;;;;;;;11.32;100.00;100258.75;4927267;29;20686;-81
2023/10/01 03:58:26;;;;;;;4.97;2.60;;;;;;;11.33;100.00;100263.94;4927207;29;20223;-81
2023/10/01 04:00:55;;;;;;;4.03;2.70;;;;;;;11.35;100.00;100255.66;4926858;29;20706;-81
2023/10/01 04:03:36;;;;;;;4.37;2.63;;;;;;;11.40;100.00;100266.59;4926329;29;20714;-81
2023/10/01 04:06:06;;;;;;;4.20;2.77;;;;;;;11.45;100.00;100256.88;4927159;29;20198;-81
2023/10/01 04:08:39;;;;;;;3.67;2.60;;;;;;;11.47;100.00;100257.50;4925562;29;20198;-80
2023/10/01 04:11:11;;;;;;;5.43;2.33;;;;;;;11.46;100.00;100268.44;4926036;29;20183;-81
2023/10/01 04:13:41;;;;;;;4.50;2.70;;;;;;;11.52;100.00;100270.28;4926772;29;20215;-80
2023/10/01 04:16:15;;;;;;;5.77;2.70;;;;;;;11.51;100.00;100260.59;4926383;29;20223;-81
2023/10/01 04:18:45;;;;;;;5.47;2.10;;;;;;;11.53;100.00;100263.03;4926317;29;20202;-81
2023/10/01 04:21:24;;;;;;;3.90;2.50;;;;;;;11.56;100.00;100262.63;4926584;29;20217;-81
2023/10/01 04:23:59;;;;;;;5.13;2.90;;;;;;;11.59;100.00;100264.88;4926036;29;20191;-81
2023/10/01 04:26:29;;;;;;;7.23;2.77;;;;;;;11.65;100.00;100264.88;4925986;29;20235;-80
2023/10/01 04:28:59;;;;;;;5.33;2.60;;;;;;;11.68;100.00;100269.00;4926986;29;20188;-81
2023/10/01 04:31:42;;;;;;;3.70;2.60;;;;;;;11.71;100.00;100268.59;4926600;29;20209;-81
2023/10/01 04:34:13;;;;;;;4.93;2.97;;;;;;;11.70;100.00;100270.44;4927604;29;20200;-81
2023/10/01 04:36:43;;;;;;;4.93;2.60;;;;;;;11.73;100.00;100269.22;4926883;29;20621;-80
2023/10/01 04:39:13;;;;;;;5.67;3.27;;;;;;;11.78;100.00;100277.47;4929404;29;20199;-80
2023/10/01 04:41:41;;;;;;;4.97;2.70;;;;;;;11.80;100.00;100270.03;4929648;29;20206;-80
2023/10/01 04:44:13;;;;;;;3.60;2.60;;;;;;;11.86;100.00;100277.22;4928784;29;20199;-81
2023/10/01 04:46:41;;;;;;;6.27;2.73;;;;;;;11.90;100.00;100273.91;4914359;29;20195;-81
2023/10/01 04:49:27;;;;;;;5.87;2.83;;;;;;;11.95;100.00;100278.63;4929873;29;20200;-81
2023/10/01 04:52:10;;;;;;;4.50;2.77;;;;;;;11.88;100.00;100273.31;4917133;29;20202;-81
2023/10/01 04:54:44;;;;;;;5.27;2.80;;;;;;;11.91;100.00;100272.03;4928941;29;20234;-81
2023/10/01 04:57:18;;;;;;;7.30;2.97;;;;;;;11.90;100.00;100273.91;4929353;29;20184;-80
2023/10/01 04:59:57;;;;;;;6.10;3.20;;;;;;;11.88;100.00;100277.84;4929121;29;20289;-80
2023/10/01 05:02:29;;;;;;;6.63;3.33;;;;;;;11.84;100.00;100269.41;4930082;29;20672;-81
2023/10/01 05:05:09;;;;;;;6.33;3.90;;;;;;;11.96;100.00;100284.81;4931144;29;20195;-82
2023/10/01 05:07:39;;;;;;;6.30;3.80;;;;;;;12.04;100.00;100295.34;4920999;29;20533;-80
2023/10/01 05:10:09;;;;;;;6.73;3.60;;;;;;;12.12;100.00;100287.03;4922007;29;20203;-80
2023/10/01 05:12:43;;;;;;;5.30;3.43;;;;;;;12.20;100.00;100287.63;4920163;29;20197;-80
2023/10/01 05:15:24;;;;;;;5.83;3.60;;;;;;;12.32;100.00;100282.38;4921454;29;20198;-80
2023/10/01 05:17:55;;;;;;;5.80;3.50;;;;;;;12.42;100.00;100284.59;4921010;29;20202;-79
2023/10/01 05:20:26;;;;;;;5.27;3.40;;;;;;;12.50;100.00;100285.19;4921289;29;20231;-80
2023/10/01 05:22:58;;;;;;;4.73;3.00;;;;;;;12.60;100.00;100287.38;4921164;29;20551;-80
2023/10/01 05:25:27;;;;;;;5.80;2.97;;;;;;;12.68;100.00;100293.34;4921115;29;20196;-80
2023/10/01 05:27:55;;;;;;;6.13;3.50;;;;;;;12.75;100.00;100293.28;4921066;29;20213;-80
2023/10/01 05:30:42;;;;;;;7.17;3.43;;;;;;;12.78;100.00;100287.50;4920950;29;20192;-80
2023/10/01 05:33:11;;;;;;;6.10;3.60;;;;;;;12.83;100.00;100286.84;4920717;29;20195;-80
2023/10/01 05:35:44;;;;;;;7.30;4.20;;;;;;;12.84;100.00;100294.66;4920797;29;20221;-79
2023/10/01 05:38:17;;;;;;;7.77;3.80;;;;;;;12.88;100.00;100289.69;4920822;29;20537;-79
2023/10/01 05:40:44;;;;;;;7.27;3.73;;;;;;;12.93;100.00;100305.97;4920934;29;20196;-80
2023/10/01 05:43:13;;;;;;;9.13;3.53;;;;;;;12.99;100.00;100302.41;4920437;29;20248;-80
2023/10/01 05:45:52;;;;;;;5.93;3.40;;;;;;;13.09;100.00;100310.81;4920629;29;20218;-80
2023/10/01 05:48:22;;;;;;;5.63;2.87;;;;;;;13.23;100.00;100315.09;4919637;29;20184;-80
2023/10/01 05:50:51;;;;;;;5.97;3.00;;;;;;;13.32;100.00;100312.94;4920656;29;20202;-80
2023/10/01 05:53:20;;;;;;;3.67;2.63;;;;;;;13.39;100.00;100313.72;4920360;29;20197;-79
2023/10/01 05:55:49;;;;;;;4.90;3.07;;;;;;;13.47;100.00;100310.72;4920798;29;20203;-80
2023/10/01 05:58:16;;;;;;;7.17;3.00;;;;;;;13.54;100.00;100315.00;4921129;29;20194;-79
2023/10/01 06:00:53;;;;;;;5.00;3.00;;;;;;;13.61;100.00;100305.00;4920891;29;20293;-80
2023/10/01 06:03:23;;;;;;;5.87;2.80;;;;;;;13.75;100.00;100296.78;4920566;29;20323;-80
2023/10/01 06:05:58;;;;;;;6.30;2.83;;;;;;;13.86;100.00;100302.22;4919894;29;20197;-79
2023/10/01 06:08:32;;;;;;;6.73;3.07;;;;;;;14.01;100.00;100286.50;4921594;29;20174;-79
2023/10/01 06:11:09;;;;;;;4.37;2.90;;;;;;;14.14;100.00;100287.41;4921749;29;20216;-79
2023/10/01 06:13:38;;;;;;;7.07;2.90;;;;;;;14.30;100.00;100284.06;4920102;29;20215;-80
2023/10/01 06:16:16;;;;;;;6.43;3.50;;;;;;;14.48;100.00;100289.44;4922486;29;20190;-80
2023/10/01 06:18:50;;;;;;;6.40;2.87;;;;;;;14.63;100.00;100295.25;4921174;29;20218;-80
2023/10/01 06:21:20;;;;;;;4.40;2.77;;;;;;;14.81;100.00;100291.66;4923155;29;20222;-79
2023/10/01 06:23:51;;;;;;;5.33;2.57;;;;;;;14.92;100.00;100297.09;4922032;29;20231;-79
2023/10/01 06:26:36;;;;;;;5.20;2.90;;;;;;;15.06;100.00;100288.78;4934442;29;20226;-80
2023/10/01 06:29:07;;;;;;;6.80;2.97;;;;;;;15.21;100.00;100295.34;4932875;29;20218;-80
2023/10/01 06:32:21;;;;;;;9.10;3.33;;;;;;;15.34;100.00;100297.03;4928436;29;20205;-81
2023/10/01 06:34:24;;;;;;;6.80;2.70;;;;;;;15.47;100.00;100306.75;4927190;29;20225;-80
2023/10/01 06:36:58;;;;;;;5.97;2.77;;;;;;;15.56;100.00;100302.69;4921440;29;20189;-81
2023/10/01 06:39:30;;;;;;;5.73;2.93;;;;;;;15.59;100.00;100310.28;4904889;29;20194;-82
2023/10/01 06:42:18;;;;;;;5.63;2.90;;;;;;;15.55;100.00;100311.81;4937037;29;20180;-81
2023/10/01 06:44:49;;;;;;;6.40;2.90;;;;;;;15.46;100.00;100313.22;4936668;29;20238;-82
2023/10/01 06:47:18;;;;;;;5.87;2.70;;;;;;;15.41;100.00;100313.91;4937377;29;20198;-82
2023/10/01 06:52:35;;;;;;;5.33;2.87;;;;;;;15.56;100.00;100303.50;4937478;29;20276;-82
2023/10/01 06:55:03;;;;;;;8.43;2.97;;;;;;;15.73;100.00;100306.28;4936481;29;20209;-81
2023/10/01 06:57:33;;;;;;;5.97;2.60;;;;;;;15.80;100.00;100302.44;4936495;29;20185;-81
2023/10/01 07:00:03;;;;;;;4.67;2.80;;;;;;;15.90;100.00;100306.41;4919999;29;20657;-81
2023/10/01 07:02:34;;;;;;;5.70;2.80;;;;;;;16.05;100.00;100301.31;4919535;29;20205;-82
2023/10/01 07:05:03;;;;;;;5.57;2.50;;;;;;;16.23;100.00;100301.97;4936288;29;20552;-81
2023/10/01 07:07:42;;;;;;;5.13;3.00;;;;;;;16.37;100.00;100302.50;4936225;29;20189;-81
2023/10/01 07:10:10;;;;;;;4.70;2.63;;;;;;;16.39;100.00;100299.53;4919113;29;20194;-81
2023/10/01 07:12:53;;;;;;;5.57;2.70;;;;;;;16.41;100.00;100306.38;4919668;29;20281;-80
2023/10/01 07:15:25;;;;;;;7.03;2.57;;;;;;;16.57;100.00;100305.59;4918792;29;20245;-80
2023/10/01 07:17:53;;;;;;;5.47;2.53;;;;;;;16.54;100.00;100303.38;4935849;29;20196;-81
2023/10/01 07:20:24;;;;;;;5.27;2.93;;;;;;;16.82;100.00;100309.84;4935758;29;20194;-81
2023/10/01 07:22:54;;;;;;;4.77;2.47;;;;;;;16.81;100.00;100314.44;4935947;29;20217;-82
2023/10/01 07:25:42;;;;;;;6.17;2.77;;;;;;;16.90;100.00;100322.97;4936303;29;20174;-80
2023/10/01 07:28:18;;;;;;;4.57;2.93;;;;;;;17.08;100.00;100318.16;4921930;29;20201;-81
2023/10/01 07:30:51;;;;;;;5.00;2.60;;;;;;;17.08;100.00;100318.16;4935148;29;20201;-80
2023/10/01 07:33:22;;;;;;;5.13;3.00;;;;;;;17.54;100.00;100316.19;4930048;29;20223;-81
2023/10/01 07:35:59;;;;;;;5.80;2.80;;;;;;;17.93;100.00;100317.84;4919595;29;20297;-80
2023/10/01 07:38:29;;;;;;;6.67;3.30;;;;;;;17.84;100.00;100316.63;4932478;29;20201;-82
2023/10/01 07:41:07;;;;;;;4.87;2.90;;;;;;;18.12;100.00;100318.34;4922144;29;20190;-81
2023/10/01 07:43:35;;;;;;;6.17;3.00;;;;;;;18.22;100.00;100329.34;4919647;29;20194;-80
2023/10/01 07:46:07;;;;;;;6.70;3.27;;;;;;;18.36;100.00;100332.47;4934773;29;20201;-82
2023/10/01 07:48:38;;;;;;;5.20;2.83;;;;;;;18.41;100.00;100327.13;4935236;29;20728;-79
2023/10/01 07:51:22;;;;;;;5.13;2.87;;;;;;;18.36;100.00;100322.44;4934761;29;20200;-79
2023/10/01 07:53:52;;;;;;;6.97;3.50;;;;;;;18.41;100.00;100321.69;4931877;29;20274;-79
2023/10/01 07:56:23;;;;;;;6.07;3.03;;;;;;;18.01;100.00;100328.25;4933939;29;20744;-79
2023/10/01 07:59:16;;;;;;;6.70;3.20;;;;;;;18.13;100.00;100327.31;4917974;29;20195;-79
2023/10/01 08:01:45;;;;;;;6.13;3.33;;;;;;;18.07;100.00;100322.88;4929532;29;20207;-79
2023/10/01 08:07:15;;;;;;;8.93;3.57;;;;;;;18.35;100.00;100328.94;4935215;29;20249;-82
2023/10/01 08:09:51;;;;;;;5.90;3.37;;;;;;;18.44;100.00;100337.44;4926096;29;20624;-82
2023/10/01 08:18:19;;;;;;;6.60;3.40;;;;;;;18.53;100.00;100338.66;4944202;29;20285;-82
2023/10/01 08:20:58;;;;;;;5.63;3.17;;;;;;;18.58;100.00;100336.00;4942369;29;20209;-84
2023/10/01 08:23:27;;;;;;;6.63;3.33;;;;;;;18.54;100.00;100332.19;4948423;29;20298;-82
2023/10/01 08:25:56;;;;;;;6.13;3.47;;;;;;;18.69;100.00;100334.22;4932024;29;20205;-83
2023/10/01 08:31:20;;;;;;;5.67;3.27;;;;;;;18.84;100.00;100329.78;4946549;29;20193;-83
2023/10/01 08:33:51;;;;;;;7.23;3.57;;;;;;;18.54;100.00;100331.34;4939943;29;20206;-82
2023/10/01 08:36:24;;;;;;;6.70;3.47;;;;;;;18.65;100.00;100335.81;4950292;29;20224;-81
2023/10/01 08:39:20;;;;;;;6.03;3.60;;;;;;;18.48;100.00;100327.72;4943025;29;20272;-82
2023/10/01 08:41:51;;;;;;;6.07;3.50;;;;;;;18.68;100.00;100319.03;4943144;29;20210;-82
2023/10/01 08:44:30;;;;;;;6.27;3.77;;;;;;;18.83;100.00;100320.00;4946719;29;20592;-82
2023/10/01 08:47:21;;;;;;;9.10;3.90;;;;;;;18.90;100.00;100314.34;4945028;29;20211;-81
2023/10/01 08:49:51;;;;;;;7.40;3.77;;;;;;;18.87;100.00;100315.69;4940858;29;20205;-82
2023/10/01 08:52:25;;;;;;;8.10;3.70;;;;;;;18.98;100.00;100310.34;4954273;29;20626;-81
2023/10/01 08:54:54;;;;;;;5.53;3.43;;;;;;;19.09;100.00;100307.47;4938136;29;20227;-81
2023/10/01 08:57:37;;;;;;;6.97;3.63;;;;;;;19.20;100.00;100306.47;4941986;29;20205;-81
2023/10/01 09:00:20;;;;;;;5.80;3.67;;;;;;;19.38;100.00;100291.66;4929591;29;20199;-81
2023/10/01 09:02:53;;;;;;;5.97;4.00;;;;;;;19.62;100.00;100292.13;4944743;29;20200;-83
2023/10/01 09:05:26;;;;;;;6.17;3.77;;;;;;;19.90;100.00;100301.78;4934830;29;20215;-83
2023/10/01 09:08:56;;;;;;;5.73;3.60;;;;;;;20.02;100.00;100302.38;4944521;29;20622;-81
2023/10/01 09:10:54;;;;;;;6.10;4.03;;;;;;;20.11;100.00;100293.44;4922088;29;20206;-81
2023/10/01 09:13:22;;;;;;;6.50;3.70;;;;;;;20.36;100.00;100298.19;4952242;29;20584;-83
2023/10/01 09:15:55;;;;;;;7.93;4.53;;;;;;;20.59;100.00;100283.28;4945682;29;20218;-81
2023/10/01 09:18:24;;;;;;;7.23;4.30;;;;;;;20.75;100.00;100289.56;4947633;29;20207;-83
2023/10/01 09:21:08;;;;;;;7.33;4.43;;;;;;;21.00;100.00;100284.13;4927770;29;20214;-81
2023/10/01 09:23:55;;;;;;;7.17;4.77;;;;;;;21.13;100.00;100271.88;4943316;28;20597;-83
2023/10/01 09:26:37;;;;;;;7.50;4.90;;;;;;;21.55;100.00;100286.03;4913829;29;20254;-81
2023/10/01 09:29:26;;;;;;;6.77;4.70;;;;;;;21.83;100.00;100281.88;4900136;29;20312;-81
2023/10/01 09:31:58;;;;;;;8.20;5.00;;;;;;;21.79;100.00;100291.72;4898117;29;20209;-81
2023/10/01 09:34:35;;;;;;;6.33;4.50;;;;;;;21.68;100.00;100284.63;4911930;29;20260;-81
2023/10/01 09:37:42;;;;;;;6.90;4.60;;;;;;;21.72;100.00;100289.25;4917195;29;20209;-82
2023/10/01 09:43:02;;;;;;;6.95;4.68;;;;;;;21.67;100.00;100289.28;4915741;29;20811;-80
2023/10/01 09:45:39;;;;;;;7.03;4.47;;;;;;;21.89;100.00;100292.47;4917008;29;20541;-81
2023/10/01 09:48:23;;;;;;;8.57;4.75;;;;;;;21.93;100.00;100290.84;4910957;29;20325;-81
2023/10/01 09:51:14;;;;;;;7.30;4.90;;;;;;;22.00;100.00;100285.09;4895160;29;20209;-80
2023/10/01 09:54:00;;;;;;;6.88;4.90;;;;;;;21.97;100.00;100288.41;4915539;29;20215;-80
2023/10/01 09:56:30;;;;;;;8.82;4.97;;;;;;;21.93;100.00;100295.47;4916800;29;20260;-83
2023/10/01 09:59:03;;;;;;;6.90;4.82;;;;;;;21.83;99.59;100285.41;4907937;29;20280;-80
2023/10/01 10:01:33;;;;;;;8.70;5.20;;;;;;;21.82;100.00;100283.78;4907882;29;20205;-81
2023/10/01 10:04:10;;;;;;;7.55;5.00;;;;;;;21.85;99.88;100290.56;4917166;29;20199;-81
2023/10/01 10:06:39;;;;;;;8.02;4.70;;;;;;;21.89;100.00;100283.47;4914412;29;20207;-81
2023/10/01 10:09:25;;;;;;;8.35;4.97;;;;;;;21.82;99.23;100293.88;4916966;29;20199;-81
2023/10/01 10:11:54;;;;;;;6.65;4.75;;;;;;;21.65;94.95;100280.53;4913643;29;20199;-82
2023/10/01 10:14:27;;;;;;;7.45;5.47;;;;;;;21.73;93.22;100282.72;4917258;29;20205;-80
2023/10/01 10:16:58;;;;;;;6.60;4.82;;;;;;;21.81;96.90;100282.16;4916824;29;20202;-80
2023/10/01 10:19:31;;;;;;;8.23;4.88;;;;;;;21.86;98.79;100290.31;4899597;29;20213;-80
2023/10/01 10:24:34;;;;;;;8.90;5.50;;;;;;;21.90;98.63;100287.84;4916296;29;20636;-80
2023/10/01 10:27:07;;;;;;;7.15;4.68;;;;;;;22.15;95.31;100276.88;4919416;29;20337;-80
2023/10/01 10:29:47;;;;;;;8.60;5.32;;;;;;;22.36;89.18;100281.09;4924931;29;20216;-81
2023/10/01 10:32:15;;;;;;;7.38;5.10;;;;;;;22.66;90.45;100287.50;4916467;29;20202;-80
2023/10/01 10:35:06;;;;;;;8.02;5.47;;;;;;;22.85;89.52;100283.03;4923970;29;20197;-81
2023/10/01 10:37:38;;;;;;;9.45;5.38;;;;;;;23.08;88.70;100276.00;4916433;29;20202;-80
2023/10/01 10:40:13;;;;;;;8.20;4.93;;;;;;;23.15;88.16;100274.56;4920851;29;20225;-82
2023/10/01 10:42:46;;;;;;;7.57;5.32;;;;;;;23.14;91.31;100280.34;4925536;29;20201;-80
2023/10/01 10:45:24;;;;;;;7.95;5.13;;;;;;;23.06;92.82;100278.19;4920937;29;20546;-80
2023/10/01 10:48:04;;;;;;;7.72;5.00;;;;;;;22.94;91.37;100273.13;4923881;29;20189;-80
2023/10/01 10:50:48;;;;;;;7.25;5.05;;;;;;;22.71;91.74;100271.94;4924044;29;20214;-81
2023/10/01 10:53:24;;;;;;;7.57;5.13;;;;;;;22.78;92.37;100266.94;4919139;29;20198;-81
2023/10/01 10:56:13;;;;;;;8.38;5.13;;;;;;;22.75;91.27;100267.53;4912814;29;20218;-80
2023/10/01 10:58:44;;;;;;;7.00;5.30;;;;;;;23.03;89.38;100256.91;4919189;29;20258;-81
2023/10/01 11:01:20;;;;;;;8.68;5.25;;;;;;;23.20;88.96;100258.13;4924093;29;20194;-81
2023/10/01 11:04:00;;;;;;;7.47;5.25;;;;;;;23.12;88.26;100255.19;4932517;29;20198;-81
2023/10/01 11:06:42;;;;;;;8.23;5.18;;;;;;;23.10;88.19;100252.75;4933866;29;20272;-81
2023/10/01 11:09:22;;;;;;;6.97;5.00;;;;;;;23.43;86.54;100245.59;4919765;29;20252;-80
2023/10/01 11:11:54;;;;;;;6.65;4.85;;;;;;;23.62;80.17;100230.09;4930210;29;20198;-80
2023/10/01 11:14:25;;;;;;;7.20;5.50;;;;;;;23.43;82.99;100225.63;4933418;29;20209;-80
2023/10/01 11:16:53;;;;;;;8.00;4.85;;;;;;;23.49;86.43;100232.72;4934513;29;20309;-81
2023/10/01 11:19:25;;;;;;;7.47;4.82;;;;;;;23.90;86.06;100235.78;4916599;29;20196;-81
2023/10/01 11:22:00;;;;;;;6.75;4.90;;;;;;;23.76;83.25;100235.69;4922826;29;20202;-80
2023/10/01 11:24:39;;;;;;;8.57;5.60;;;;;;;24.08;81.04;100224.88;4919875;29;20199;-80
2023/10/01 11:27:11;;;;;;;6.63;4.78;;;;;;;24.02;83.93;100226.06;4929895;29;20316;-80
2023/10/01 11:29:39;;;;;;;6.57;5.00;;;;;;;23.92;86.45;100225.38;4949517;29;20221;-79
2023/10/01 11:32:07;;;;;;;6.10;4.60;;;;;;;23.96;86.55;100227.22;4945718;29;20274;-80
2023/10/01 11:34:45;;;;;;;7.47;5.03;;;;;;;23.60;87.88;100213.19;4922364;29;20197;-81
2023/10/01 11:37:17;;;;;;;6.47;5.25;;;;;;;23.60;87.26;100213.19;4934840;29;20236;-82
2023/10/01 11:39:52;;;;;;;7.47;4.78;;;;;;;23.31;87.15;100211.56;4925131;29;20628;-82
2023/10/01 11:42:35;;;;;;;7.60;5.22;;;;;;;23.16;88.83;100202.41;4938810;29;20218;-83
2023/10/01 11:45:29;;;;;;;8.23;5.60;;;;;;;23.26;85.82;100188.63;4937954;29;20285;-82
2023/10/01 11:48:19;;;;;;;7.13;5.03;;;;;;;23.49;83.91;100188.97;4944717;29;20253;-83
2023/10/01 11:50:50;;;;;;;7.20;5.15;;;;;;;23.63;81.26;100192.63;4938669;29;20668;-81
2023/10/01 11:53:28;;;;;;;7.53;4.97;;;;;;;23.52;79.20;100188.38;4940639;29;20197;-81
2023/10/01 11:56:01;;;;;;;7.15;5.10;;;;;;;23.71;79.95;100183.75;4940166;29;20344;-82
2023/10/01 11:58:29;;;;;;;7.43;5.40;;;;;;;23.73;80.87;100180.75;4943521;29;20289;-81
2023/10/01 12:01:01;;;;;;;8.27;5.60;;;;;;;23.75;79.57;100184.00;4945714;29;20574;-81
2023/10/01 12:03:29;;;;;;;8.68;5.32;;;;;;;23.61;79.03;100181.97;4946058;29;20287;-81
2023/10/01 12:05:56;;;;;;;7.38;4.90;;;;;;;23.42;79.23;100180.28;4951047;29;20201;-83
2023/10/01 12:08:47;;;;;;;8.63;5.65;;;;;;;23.30;78.94;100179.84;4915690;29;20253;-80
2023/10/01 12:11:28;;;;;;;7.70;5.60;;;;;;;23.20;79.32;100178.03;4945547;29;20577;-82
2023/10/01 12:14:17;;;;;;;8.07;5.10;;;;;;;23.29;79.82;100179.03;4952710;29;20550;-83
2023/10/01 12:16:47;;;;;;;8.27;5.68;;;;;;;23.28;78.80;100170.00;4956895;29;20225;-82
2023/10/01 12:19:22;;;;;;;7.07;5.15;;;;;;;23.34;75.87;100159.84;4939907;29;20193;-81
2023/10/01 12:22:06;;;;;;;6.55;4.78;;;;;;;23.47;74.30;100159.16;4945310;29;20198;-81
2023/10/01 12:24:39;;;;;;;7.55;5.03;;;;;;;23.51;73.91;100151.22;4939931;29;20203;-82
2023/10/01 12:27:10;;;;;;;6.60;5.05;;;;;;;23.47;75.47;100156.41;4940677;29;20237;-83
2023/10/01 12:29:43;;;;;;;7.85;5.18;;;;;;;23.55;73.33;100147.59;4938064;29;20234;-79
2023/10/01 12:32:11;;;;;;;8.15;4.75;;;;;;;23.59;72.40;100153.28;4939721;29;20616;-80
2023/10/01 12:34:39;;;;;;;6.45;4.57;;;;;;;23.77;70.74;100138.81;4940407;29;20206;-80
2023/10/01 12:40:14;;;;;;;6.40;4.82;;;;;;;23.69;69.96;100150.44;4938369;29;20189;-79
2023/10/01 12:42:50;;;;;;;7.25;4.63;;;;;;;23.72;71.20;100152.56;4939384;29;20222;-80
2023/10/01 12:45:20;;;;;;;6.53;4.38;;;;;;;23.67;71.78;100156.19;4924557;29;20200;-81
2023/10/01 12:47:51;;;;;;;8.73;5.60;;;;;;;23.57;71.31;100144.53;4939877;29;20279;-80
2023/10/01 12:50:26;;;;;;;8.05;5.25;;;;;;;23.60;72.68;100139.31;4937668;29;20215;-79
2023/10/01 12:55:51;;;;;;;7.00;5.15;;;;;;;23.24;70.16;100129.88;4943809;29;20292;-79
2023/10/01 12:58:35;;;;;;;6.63;4.70;;;;;;;23.30;71.48;100131.44;4939678;29;20323;-81
2023/10/01 13:03:53;;;;;;;7.85;5.10;;;;;;;23.17;65.03;100130.25;4933965;29;20268;-79
2023/10/01 13:06:21;;;;;;;6.85;4.90;;;;;;;23.16;65.34;100123.13;4941415;29;20241;-80
2023/10/01 13:08:50;;;;;;;6.85;4.72;;;;;;;23.06;66.21;100123.25;4941338;29;20199;-79
2023/10/01 13:14:18;;;;;;;6.63;4.65;;;;;;;23.14;66.92;100110.88;4936796;29;20209;-79
2023/10/01 13:17:03;;;;;;;7.43;5.10;;;;;;;23.10;67.15;100113.34;4934291;29;20225;-80
2023/10/01 13:19:33;;;;;;;6.93;4.85;;;;;;;23.26;66.09;100108.53;4923869;29;20292;-89
2023/10/01 13:22:04;;;;;;;6.80;4.60;;;;;;;23.41;67.02;100111.09;4941240;29;20189;-79
2023/10/01 13:24:32;;;;;;;7.85;5.20;;;;;;;23.42;66.09;100103.72;4940570;29;20194;-80
2023/10/01 13:27:10;;;;;;;7.72;5.13;;;;;;;23.57;65.00;100106.25;4935902;29;20242;-81
2023/10/01 13:29:38;;;;;;;7.38;5.20;;;;;;;23.62;63.58;100098.00;4918258;29;20318;-79
2023/10/01 13:32:15;;;;;;;8.35;5.28;;;;;;;;;;4935432;29;20200;-79
2023/10/01 13:34:54;;;;;;;7.22;5.47;;;;;;;23.46;63.64;100094.66;4936821;29;20220;-78
2023/10/01 14:08:42;;;;;;;8.23;5.43;;;;;;;;;;4935042;29;20198;-80
2023/10/01 14:10:51;;;;;;;7.47;5.53;;;;;;;23.31;69.41;100056.53;4942890;29;20204;-79
2023/10/01 14:13:29;;;;;;;8.27;5.20;;;;;;;23.27;68.98;100050.03;4919489;29;20580;-79
2023/10/01 14:16:11;;;;;;;8.13;5.72;;;;;;;23.31;68.26;100051.06;4921038;29;20210;-79
2023/10/01 14:18:40;;;;;;;6.65;4.90;;;;;;;23.10;67.68;100042.31;4900959;29;20225;-79
2023/10/01 14:21:15;;;;;;;6.82;5.22;;;;;;;23.09;68.39;100043.44;4937433;29;20692;-81
2023/10/01 14:23:45;;;;;;;8.50;5.50;;;;;;;23.12;68.63;100047.50;4931857;29;20186;-80
2023/10/01 14:26:26;;;;;;;8.02;5.60;;;;;;;23.04;69.29;100038.03;4929790;29;20254;-79
2023/10/01 14:28:55;;;;;;;8.13;5.70;;;;;;;23.01;70.30;100038.59;4931742;29;20292;-80
2023/10/01 14:31:41;;;;;;;9.07;5.75;;;;;;;22.95;69.76;100047.16;4933994;29;20661;-79
2023/10/01 14:34:11;;;;;;;8.27;5.70;;;;;;;22.97;69.74;100047.66;4934815;29;20209;-78
2023/10/01 14:36:40;;;;;;;9.18;5.75;;;;;;;22.86;70.16;100046.16;4933783;29;20201;-80
2023/10/01 14:39:09;;;;;;;7.78;5.47;;;;;;;22.91;70.41;100043.38;4934710;29;20189;-79
2023/10/01 14:41:38;;;;;;;8.70;5.90;;;;;;;22.96;70.95;100046.84;4939349;29;20194;-81
2023/10/01 14:44:07;;;;;;;9.20;5.97;;;;;;;22.87;71.25;100032.19;4935714;29;20615;-79
2023/10/01 14:46:37;;;;;;;8.30;5.68;;;;;;;22.88;69.28;100042.03;4918521;29;20209;-79
2023/10/01 14:49:06;;;;;;;8.32;5.50;;;;;;;22.81;69.44;100038.84;4939234;29;20194;-79
2023/10/01 14:51:40;;;;;;;7.18;5.28;;;;;;;22.78;69.98;100033.94;4917335;29;20643;-80
2023/10/01 14:54:16;;;;;;;8.20;5.30;;;;;;;22.72;69.75;100035.91;4935191;29;20206;-80
2023/10/01 14:56:54;;;;;;;7.85;5.07;;;;;;;22.70;69.97;100034.59;4935099;29;20217;-79
2023/10/01 14:59:29;;;;;;;7.47;5.32;;;;;;;22.65;70.40;100034.59;4918892;29;20226;-80
2023/10/01 15:02:00;;;;;;;7.85;5.53;;;;;;;22.45;72.20;100035.63;4938896;29;20236;-80
2023/10/01 15:04:35;;;;;;;8.20;5.55;;;;;;;22.44;72.00;100039.47;4939558;29;20217;-80
2023/10/01 15:07:05;;;;;;;8.38;5.60;;;;;;;22.46;72.59;100036.44;4947447;29;20248;-80
2023/10/01 15:09:36;;;;;;;9.38;5.57;;;;;;;22.33;72.87;100036.00;4941855;29;20276;-80
2023/10/01 15:12:07;;;;;;;8.18;5.38;;;;;;;22.26;72.97;100034.69;4938709;29;20229;-79
2023/10/01 15:14:43;;;;;;;8.15;4.97;;;;;;;22.38;71.61;100037.88;4923789;29;20201;-79
2023/10/01 15:17:32;;;;;;;8.20;5.47;;;;;;;22.31;72.88;100040.94;4936072;29;20299;-80
2023/10/01 15:20:01;;;;;;;8.05;5.60;;;;;;;22.26;73.39;100038.25;4920811;29;20221;-79
2023/10/01 15:22:29;;;;;;;7.22;5.25;;;;;;;22.26;73.09;100037.44;4934179;29;20752;-80
2023/10/01 15:24:59;;;;;;;6.78;5.30;;;;;;;22.28;73.02;100043.44;4940222;29;20200;-80
2023/10/01 15:27:27;;;;;;;9.57;7.30;;;;;;;22.16;73.05;100040.28;4932789;29;20240;-80
2023/10/01 15:29:55;;;;;;;8.38;5.82;;;;;;;22.01;73.26;100041.19;4934800;29;20217;-79